Time;durP1;ratioP1;P1;durP2;ratioP2;P2;SDS_P1;SDS_P2;PMS_P1;PMS_P2;Temp;Humidity;BMP_temperature;BMP_pressure;BME280_temperature;BME280_humidity;BME280_pressure;Samples;Min_cycle;Max_cycle;Signal;HPM_P1;HPM_P2
2023/10/10 00:00:23;;;;;;;;;;;21.20;1.00;;;;;;4929123;29;19934;-50
2023/10/10 00:02:51;;;;;;;;;;;21.20;1.00;;;;;;4936361;29;19927;-48
2023/10/10 00:05:18;;;;;;;;;;;21.20;1.00;;;;;;4936524;29;19927;-50
2023/10/10 00:07:46;;;;;;;;;;;21.20;1.00;;;;;;4936437;29;19934;-48
2023/10/10 00:10:13;;;;;;;;;;;21.20;1.00;;;;;;4935962;29;19966;-49
2023/10/10 00:12:40;;;;;;;;;;;21.20;1.00;;;;;;4936213;29;19950;-50
2023/10/10 00:15:23;;;;;;;;;;;21.20;1.00;;;;;;4936160;29;19985;-49
2023/10/10 00:17:50;;;;;;;;;;;21.20;1.00;;;;;;4936268;29;20026;-48
2023/10/10 00:20:37;;;;;;;;;;;21.20;1.00;;;;;;4936121;29;19942;-49
2023/10/10 00:23:10;;;;;;;;;;;21.20;1.00;;;;;;4935328;29;19927;-49
2023/10/10 00:25:42;;;;;;;;;;;21.20;1.00;;;;;;4936067;29;19984;-53
2023/10/10 00:28:17;;;;;;;;;;;21.20;1.00;;;;;;4936084;29;19937;-49
2023/10/10 00:30:44;;;;;;;;;;;21.20;1.00;;;;;;4918518;29;20033;-53
2023/10/10 00:33:16;;;;;;;;;;;21.20;1.00;;;;;;4919046;29;19927;-50
2023/10/10 00:35:44;;;;;;;;;;;21.20;1.00;;;;;;4918732;29;19982;-50
2023/10/10 00:38:17;;;;;;;;;;;21.20;1.00;;;;;;4935987;29;20342;-51
2023/10/10 00:40:47;;;;;;;;;;;21.10;1.00;;;;;;4918451;29;19927;-49
2023/10/10 00:43:17;;;;;;;;;;;21.20;1.00;;;;;;4918665;29;19931;-49
2023/10/10 00:45:46;;;;;;;;;;;21.10;1.00;;;;;;4918586;29;19954;-49
2023/10/10 00:48:16;;;;;;;;;;;21.10;1.00;;;;;;4918658;29;19934;-49
2023/10/10 00:50:46;;;;;;;;;;;21.10;1.00;;;;;;4918564;29;19949;-50
2023/10/10 00:53:15;;;;;;;;;;;21.20;1.00;;;;;;4918736;29;19931;-53
2023/10/10 00:55:47;;;;;;;;;;;21.20;1.00;;;;;;4918519;29;19931;-50
2023/10/10 00:58:15;;;;;;;;;;;21.10;1.00;;;;;;4918565;29;20384;-53
2023/10/10 01:00:46;;;;;;;;;;;21.10;1.00;;;;;;4918079;29;19927;-51
2023/10/10 01:03:22;;;;;;;;;;;21.10;1.00;;;;;;4918491;29;20009;-53
2023/10/10 01:05:53;;;;;;;;;;;21.10;1.00;;;;;;4935571;29;20025;-53
2023/10/10 01:08:23;;;;;;;;;;;21.10;1.00;;;;;;4918401;29;19978;-49
2023/10/10 01:10:50;;;;;;;;;;;21.10;1.00;;;;;;4917960;29;20404;-48
2023/10/10 01:13:17;;;;;;;;;;;21.10;1.00;;;;;;4935494;29;19933;-49
2023/10/10 01:15:44;;;;;;;;;;;21.10;1.00;;;;;;4918433;29;20360;-50
2023/10/10 01:18:14;;;;;;;;;;;21.10;1.00;;;;;;4935474;29;19973;-54
2023/10/10 01:20:49;;;;;;;;;;;21.10;1.00;;;;;;4911044;29;19998;-52
2023/10/10 01:23:18;;;;;;;;;;;21.10;1.00;;;;;;4926575;29;19973;-51
2023/10/10 01:25:47;;;;;;;;;;;21.10;1.00;;;;;;4918184;29;19955;-50
2023/10/10 01:33:28;;;;;;;;;;;21.10;1.00;;;;;;4935560;29;20396;-53
2023/10/10 01:35:56;;;;;;;;;;;21.10;1.00;;;;;;4939170;29;19934;-53
2023/10/10 01:38:32;;;;;;;;;;;21.10;1.00;;;;;;4939287;29;19927;-50
2023/10/10 01:41:04;;;;;;;;;;;21.10;1.00;;;;;;4921502;29;19931;-50
2023/10/10 01:43:32;;;;;;;;;;;21.10;1.00;;;;;;4921811;29;19927;-51
2023/10/10 01:46:08;;;;;;;;;;;21.10;1.00;;;;;;4938907;29;19931;-48
2023/10/10 01:48:43;;;;;;;;;;;21.00;1.00;;;;;;4938910;29;19933;-49
2023/10/10 01:51:14;;;;;;;;;;;21.10;1.00;;;;;;4921457;29;19927;-50
2023/10/10 01:53:41;;;;;;;;;;;21.00;1.00;;;;;;4921488;29;19927;-53
2023/10/10 01:56:11;;;;;;;;;;;21.00;1.00;;;;;;4921540;29;20130;-52
2023/10/10 01:58:40;;;;;;;;;;;21.00;1.00;;;;;;4920512;29;19981;-49
2023/10/10 02:01:11;;;;;;;;;;;21.00;1.00;;;;;;4902476;29;19927;-50
2023/10/10 02:03:39;;;;;;;;;;;21.00;1.00;;;;;;4920081;29;19965;-50
2023/10/10 02:06:13;;;;;;;;;;;21.00;1.00;;;;;;4921185;29;19934;-51
2023/10/10 02:08:44;;;;;;;;;;;21.00;1.00;;;;;;4920614;29;19965;-49
2023/10/10 02:11:14;;;;;;;;;;;21.00;1.00;;;;;;4919972;29;19930;-49
2023/10/10 02:13:44;;;;;;;;;;;21.00;1.00;;;;;;4919226;29;19958;-48
2023/10/10 02:16:11;;;;;;;;;;;21.00;1.00;;;;;;4902223;29;19934;-51
2023/10/10 02:18:44;;;;;;;;;;;21.00;1.00;;;;;;4919414;29;19928;-51
2023/10/10 02:21:17;;;;;;;;;;;21.00;1.00;;;;;;4901855;29;19963;-49
2023/10/10 02:23:45;;;;;;;;;;;21.00;1.00;;;;;;4919473;29;19963;-53
2023/10/10 02:26:35;;;;;;;;;;;21.00;1.00;;;;;;4919285;29;20400;-49
2023/10/10 02:29:20;;;;;;;;;;;21.00;1.00;;;;;;4918284;29;20366;-50
2023/10/10 02:32:09;;;;;;;;;;;21.00;1.00;;;;;;4918344;29;20363;-48
2023/10/10 02:34:36;;;;;;;;;;;21.00;1.00;;;;;;4913713;29;19926;-48
2023/10/10 02:40:12;;;;;;;;;;;21.00;1.00;;;;;;4938028;29;20025;-48
2023/10/10 02:42:35;;;;;;;;;;;21.00;1.00;;;;;;4952296;29;19938;-49
2023/10/10 02:45:02;;;;;;;;;;;21.00;1.00;;;;;;4937049;29;19958;-48
2023/10/10 02:47:36;;;;;;;;;;;21.00;1.00;;;;;;4920591;29;20360;-51
2023/10/10 02:50:10;;;;;;;;;;;21.00;1.00;;;;;;4920579;29;19927;-48
2023/10/10 02:52:45;;;;;;;;;;;21.00;1.00;;;;;;4937544;29;20277;-52
2023/10/10 02:55:23;;;;;;;;;;;21.00;1.00;;;;;;4920561;29;20402;-48
2023/10/10 02:57:59;;;;;;;;;;;21.00;1.00;;;;;;4920729;29;20018;-51
2023/10/10 03:02:59;;;;;;;;;;;21.00;1.00;;;;;;4920377;29;19991;-52
2023/10/10 03:05:39;;;;;;;;;;;21.00;1.00;;;;;;4920425;29;19950;-52
2023/10/10 03:08:14;;;;;;;;;;;21.00;1.00;;;;;;4920346;29;19927;-52
2023/10/10 03:10:45;;;;;;;;;;;21.00;1.00;;;;;;4920057;29;19927;-50
2023/10/10 03:13:27;;;;;;;;;;;21.00;1.00;;;;;;4920271;29;19933;-52
2023/10/10 03:29:47;;;;;;;;;;;20.90;1.00;;;;;;4919121;29;19930;-53
2023/10/10 03:34:56;;;;;;;;;;;20.90;1.00;;;;;;4937002;29;20283;-50
2023/10/10 03:41:24;;;;;;;;;;;20.90;1.00;;;;;;4936865;29;19945;-49
2023/10/10 05:25:22;;;;;;;;;;;20.80;1.00;;;;;;4935066;29;19927;-54
2023/10/10 05:27:51;;;;;;;;;;;20.80;1.00;;;;;;4934929;29;20384;-49
2023/10/10 05:30:25;;;;;;;;;;;20.80;1.00;;;;;;4934723;29;19927;-52
2023/10/10 05:33:01;;;;;;;;;;;20.80;1.00;;;;;;4934875;29;19927;-53
2023/10/10 05:35:29;;;;;;;;;;;20.80;1.00;;;;;;4934948;29;20296;-51
2023/10/10 05:37:56;;;;;;;;;;;20.70;1.00;;;;;;4935231;29;20276;-54
2023/10/10 05:40:26;;;;;;;;;;;20.80;1.00;;;;;;4934772;29;19926;-49
2023/10/10 05:42:53;;;;;;;;;;;20.80;1.00;;;;;;4934707;29;19953;-52
2023/10/10 05:45:20;;;;;;;;;;;20.80;1.00;;;;;;4932943;29;20414;-51
2023/10/10 05:47:47;;;;;;;;;;;20.70;1.00;;;;;;4932318;29;19982;-49
2023/10/10 05:50:14;;;;;;;;;;;20.70;1.00;;;;;;4933088;29;19950;-53
2023/10/10 05:52:43;;;;;;;;;;;20.70;1.00;;;;;;4934594;29;20289;-49
2023/10/10 05:55:10;;;;;;;;;;;20.70;1.00;;;;;;4934546;29;19949;-49
2023/10/10 05:57:38;;;;;;;;;;;20.70;1.00;;;;;;4933549;29;19931;-51
2023/10/10 06:00:15;;;;;;;;;;;20.70;1.00;;;;;;4933988;29;20367;-50
2023/10/10 06:02:42;;;;;;;;;;;20.70;1.00;;;;;;4923813;29;19928;-54
2023/10/10 06:05:09;;;;;;;;;;;20.70;1.00;;;;;;4919231;29;20397;-50
2023/10/10 06:07:45;;;;;;;;;;;20.70;1.00;;;;;;4915748;29;19927;-50
2023/10/10 06:10:16;;;;;;;;;;;20.70;1.00;;;;;;4915532;29;19950;-54
2023/10/10 06:12:43;;;;;;;;;;;20.70;1.00;;;;;;4926990;29;19927;-55
2023/10/10 06:15:11;;;;;;;;;;;20.70;1.00;;;;;;4934469;29;19965;-52
2023/10/10 06:17:41;;;;;;;;;;;20.70;1.00;;;;;;4917052;29;19935;-54
2023/10/10 06:20:10;;;;;;;;;;;20.70;1.00;;;;;;4916771;29;19927;-53
2023/10/10 06:22:37;;;;;;;;;;;20.70;1.00;;;;;;4918691;29;19927;-55
2023/10/10 06:25:05;;;;;;;;;;;20.70;1.00;;;;;;4918848;29;19927;-55
2023/10/10 06:27:36;;;;;;;;;;;20.70;1.00;;;;;;4918811;29;19981;-52
2023/10/10 06:30:16;;;;;;;;;;;20.70;1.00;;;;;;4919059;29;19999;-55
2023/10/10 06:32:49;;;;;;;;;;;20.70;1.00;;;;;;4930041;29;19966;-50
2023/10/10 06:37:51;;;;;;;;;;;20.70;1.00;;;;;;4938163;29;19927;-53
2023/10/10 06:41:11;;;;;;;;;;;20.70;1.00;;;;;;4937777;29;19926;-54
2023/10/10 06:43:07;;;;;;;;;;;20.70;1.00;;;;;;4919624;29;19994;-51
2023/10/10 06:45:35;;;;;;;;;;;20.70;1.00;;;;;;4937534;29;20427;-55
2023/10/10 06:48:02;;;;;;;;;;;20.70;1.00;;;;;;4937248;29;20384;-52
2023/10/10 06:50:32;;;;;;;;;;;20.70;1.00;;;;;;4937198;29;20328;-49
2023/10/10 06:53:00;;;;;;;;;;;20.70;1.00;;;;;;4932420;29;19927;-54
2023/10/10 06:55:36;;;;;;;;;;;20.70;1.00;;;;;;4934952;29;19927;-52
2023/10/10 06:58:05;;;;;;;;;;;20.60;1.00;;;;;;4937088;29;19982;-51
2023/10/10 07:02:59;;;;;;;;;;;20.70;1.00;;;;;;4936843;29;20388;-54
2023/10/10 07:05:27;;;;;;;;;;;20.60;1.00;;;;;;4936430;29;19931;-50
2023/10/10 07:08:01;;;;;;;;;;;20.60;1.00;;;;;;4932026;29;20064;-52
2023/10/10 07:10:36;;;;;;;;;;;20.70;1.00;;;;;;4934113;29;20392;-52
2023/10/10 07:13:10;;;;;;;;;;;20.70;1.00;;;;;;4936388;29;19926;-53
2023/10/10 07:15:39;;;;;;;;;;;20.70;1.00;;;;;;4935635;29;20336;-55
2023/10/10 07:18:15;;;;;;;;;;;20.60;1.00;;;;;;4920098;29;20060;-53
2023/10/10 07:23:37;;;;;;;;;;;20.70;1.00;;;;;;4936778;29;19934;-51
2023/10/10 07:26:21;;;;;;;;;;;20.60;1.00;;;;;;4937092;29;20014;-50
2023/10/10 07:28:48;;;;;;;;;;;20.60;1.00;;;;;;4936851;29;19935;-53
2023/10/10 07:31:17;;;;;;;;;;;20.70;1.00;;;;;;4935899;29;19926;-52
2023/10/10 07:33:45;;;;;;;;;;;20.60;1.00;;;;;;4936652;29;19966;-54
2023/10/10 07:36:13;;;;;;;;;;;20.70;1.00;;;;;;4936690;29;19931;-54
2023/10/10 07:38:40;;;;;;;;;;;20.70;1.00;;;;;;4935869;29;20026;-55
2023/10/10 07:41:07;;;;;;;;;;;20.60;1.00;;;;;;4935571;29;19934;-54
2023/10/10 07:43:34;;;;;;;;;;;20.60;1.00;;;;;;4935907;29;19927;-51
2023/10/10 07:46:19;;;;;;;;;;;20.60;1.00;;;;;;4935742;29;19970;-49
2023/10/10 07:48:46;;;;;;;;;;;20.60;1.00;;;;;;4935857;29;19937;-53
2023/10/10 07:51:27;;;;;;;;;;;20.60;1.00;;;;;;4936297;29;19934;-49
2023/10/10 07:54:13;;;;;;;;;;;20.60;1.00;;;;;;4936277;29;19963;-53
2023/10/10 07:56:45;;;;;;;;;;;20.60;1.00;;;;;;4936182;29;19931;-52
2023/10/10 07:59:13;;;;;;;;;;;20.60;1.00;;;;;;4936079;29;20199;-52
2023/10/10 08:01:42;;;;;;;;;;;20.70;1.00;;;;;;4918715;29;19970;-53
2023/10/10 08:04:12;;;;;;;;;;;20.60;1.00;;;;;;4936116;29;19942;-54
2023/10/10 08:06:44;;;;;;;;;;;20.60;1.00;;;;;;4936162;29;20383;-49
2023/10/10 08:09:18;;;;;;;;;;;20.60;1.00;;;;;;4935737;29;20018;-53
2023/10/10 08:11:45;;;;;;;;;;;20.60;1.00;;;;;;4935795;29;20305;-49
2023/10/10 08:14:12;;;;;;;;;;;20.60;1.00;;;;;;4935813;29;20025;-54
2023/10/10 08:16:40;;;;;;;;;;;20.70;1.00;;;;;;4935950;29;19933;-51
2023/10/10 08:19:15;;;;;;;;;;;20.60;1.00;;;;;;4935776;29;20017;-52
2023/10/10 08:21:51;;;;;;;;;;;20.70;1.00;;;;;;4935647;29;19970;-53
2023/10/10 08:24:19;;;;;;;;;;;20.70;1.00;;;;;;4935894;29;20316;-50
2023/10/10 08:26:51;;;;;;;;;;;20.70;1.00;;;;;;4935841;29;19935;-55
2023/10/10 08:29:21;;;;;;;;;;;20.70;1.00;;;;;;4935407;29;20385;-50
2023/10/10 08:31:51;;;;;;;;;;;20.70;1.00;;;;;;4935372;29;19927;-54
2023/10/10 08:34:18;;;;;;;;;;;20.60;1.00;;;;;;4935422;29;19927;-51
2023/10/10 08:36:45;;;;;;;;;;;20.70;1.00;;;;;;4933063;29;19978;-51
2023/10/10 08:41:42;;;;;;;;;;;20.70;1.00;;;;;;4916374;29;19935;-54
2023/10/10 08:44:10;;;;;;;;;;;20.70;1.00;;;;;;4915686;29;19928;-53
2023/10/10 08:46:58;;;;;;;;;;;20.70;1.00;;;;;;4916389;29;19987;-52
2023/10/10 08:49:27;;;;;;;;;;;20.70;1.00;;;;;;4916215;29;19927;-54
2023/10/10 08:51:58;;;;;;;;;;;20.70;1.00;;;;;;4916631;29;19938;-54
2023/10/10 08:54:25;;;;;;;;;;;20.70;1.00;;;;;;4916722;29;20010;-55
2023/10/10 08:59:32;;;;;;;;;;;20.70;1.00;;;;;;4916076;29;19927;-49
2023/10/10 09:02:12;;;;;;;;;;;20.70;1.00;;;;;;4916041;29;20072;-54
2023/10/10 09:04:39;;;;;;;;;;;20.70;1.00;;;;;;4916231;29;19927;-52
2023/10/10 09:07:11;;;;;;;;;;;20.70;1.00;;;;;;4916354;29;19988;-53
2023/10/10 09:09:39;;;;;;;;;;;20.70;1.00;;;;;;4915812;29;19931;-53
2023/10/10 09:12:14;;;;;;;;;;;20.70;1.00;;;;;;4916028;29;20029;-51
2023/10/10 09:14:43;;;;;;;;;;;20.70;1.00;;;;;;4899231;29;19927;-53
2023/10/10 09:17:20;;;;;;;;;;;20.70;1.00;;;;;;4916170;29;19933;-53
2023/10/10 09:19:48;;;;;;;;;;;20.70;1.00;;;;;;4915942;29;20300;-55
2023/10/10 09:22:28;;;;;;;;;;;20.70;1.00;;;;;;4915837;29;20278;-53
2023/10/10 09:24:55;;;;;;;;;;;20.70;1.00;;;;;;4916124;29;19928;-55
2023/10/10 09:27:27;;;;;;;;;;;20.70;1.00;;;;;;4916462;29;19928;-50
2023/10/10 09:29:56;;;;;;;;;;;20.70;1.00;;;;;;4915496;29;19927;-54
2023/10/10 09:32:35;;;;;;;;;;;20.70;1.00;;;;;;4915886;29;20401;-54
2023/10/10 09:35:08;;;;;;;;;;;20.70;1.00;;;;;;4927851;29;19951;-54
2023/10/10 09:37:38;;;;;;;;;;;20.70;1.00;;;;;;4934862;29;19934;-52
2023/10/10 09:40:15;;;;;;;;;;;20.70;1.00;;;;;;4934763;29;20046;-52
2023/10/10 09:43:03;;;;;;;;;;;20.70;1.00;;;;;;4934724;29;19981;-53
2023/10/10 09:48:27;;;;;;;;;;;20.70;1.00;;;;;;4935117;29;20009;-55
2023/10/10 09:51:16;;;;;;;;;;;20.70;1.00;;;;;;4934577;29;19934;-52
2023/10/10 09:53:46;;;;;;;;;;;20.70;1.00;;;;;;4934542;29;20381;-53
2023/10/10 09:56:21;;;;;;;;;;;20.70;1.00;;;;;;4937863;29;19958;-50
2023/10/10 09:58:53;;;;;;;;;;;20.70;1.00;;;;;;4938055;29;19927;-50
2023/10/10 10:01:24;;;;;;;;;;;20.80;1.00;;;;;;4938184;29;19927;-55
2023/10/10 10:03:59;;;;;;;;;;;20.70;1.00;;;;;;4938006;29;19927;-54
2023/10/10 10:09:17;;;;;;;;;;;20.80;1.00;;;;;;4938023;29;20299;-51
2023/10/10 10:11:47;;;;;;;;;;;20.80;1.00;;;;;;4936352;29;19933;-50
2023/10/10 10:14:28;;;;;;;;;;;20.80;1.00;;;;;;4919131;29;19927;-52
2023/10/10 10:17:12;;;;;;;;;;;20.80;1.00;;;;;;4919328;29;19928;-53
2023/10/10 10:19:42;;;;;;;;;;;20.80;1.00;;;;;;4918989;29;19935;-53
2023/10/10 10:22:17;;;;;;;;;;;20.90;1.00;;;;;;4918895;29;20405;-54
2023/10/10 10:24:47;;;;;;;;;;;20.90;1.00;;;;;;4919021;29;19928;-53
2023/10/10 10:27:25;;;;;;;;;;;20.90;1.00;;;;;;4919026;29;20449;-54
2023/10/10 10:30:08;;;;;;;;;;;20.90;1.00;;;;;;4918620;29;19938;-54
2023/10/10 10:32:35;;;;;;;;;;;20.90;1.00;;;;;;4918674;29;20302;-53
2023/10/10 10:35:08;;;;;;;;;;;20.90;1.00;;;;;;4912962;29;19930;-52
2023/10/10 10:37:35;;;;;;;;;;;20.90;1.00;;;;;;4937818;29;19937;-55
2023/10/10 10:42:49;;;;;;;;;;;21.00;1.00;;;;;;4937513;29;19926;-54
2023/10/10 10:45:36;;;;;;;;;;;21.00;1.00;;;;;;4937754;29;20513;-55
2023/10/10 10:48:05;;;;;;;;;;;21.00;1.00;;;;;;4937502;29;20337;-54
2023/10/10 10:50:42;;;;;;;;;;;21.00;1.00;;;;;;4937379;29;19930;-55
2023/10/10 10:53:32;;;;;;;;;;;21.00;1.00;;;;;;4937480;29;19966;-54
2023/10/10 11:01:23;;;;;;;;;;;21.00;1.00;;;;;;4937199;29;20021;-54
2023/10/10 11:03:51;;;;;;;;;;;21.00;1.00;;;;;;4937181;29;20013;-55
2023/10/10 11:06:23;;;;;;;;;;;21.00;1.00;;;;;;4936335;29;19927;-54
2023/10/10 11:14:09;;;;;;;;;;;21.10;1.00;;;;;;4937091;29;19927;-55
2023/10/10 11:16:37;;;;;;;;;;;21.10;1.00;;;;;;4937304;29;19933;-52
2023/10/10 11:21:49;;;;;;;;;;;21.10;1.00;;;;;;4936721;29;19926;-55
2023/10/10 11:24:23;;;;;;;;;;;21.10;1.00;;;;;;4936850;29;19933;-52
2023/10/10 11:27:21;;;;;;;;;;;21.10;1.00;;;;;;4936917;29;20459;-55
2023/10/10 11:29:45;;;;;;;;;;;21.10;1.00;;;;;;4936306;29;20401;-53
2023/10/10 11:32:22;;;;;;;;;;;21.10;1.00;;;;;;4936749;29;19973;-53
2023/10/10 11:34:50;;;;;;;;;;;21.10;1.00;;;;;;4936805;29;20545;-55
2023/10/10 11:37:21;;;;;;;;;;;21.10;1.00;;;;;;4936694;29;20037;-55
2023/10/10 11:40:01;;;;;;;;;;;21.10;1.00;;;;;;4936326;29;19926;-55
2023/10/10 11:42:33;;;;;;;;;;;21.10;1.00;;;;;;4936220;29;19969;-54
2023/10/10 11:45:07;;;;;;;;;;;21.10;1.00;;;;;;4936548;29;20018;-54
2023/10/10 11:47:44;;;;;;;;;;;21.20;1.00;;;;;;4936565;29;20468;-54
2023/10/10 11:50:12;;;;;;;;;;;21.20;1.00;;;;;;4936036;29;19931;-55
2023/10/10 11:52:56;;;;;;;;;;;21.20;1.00;;;;;;4919440;29;19935;-54
2023/10/10 11:55:23;;;;;;;;;;;21.20;1.00;;;;;;4936342;29;19982;-53
2023/10/10 11:57:51;;;;;;;;;;;21.20;1.00;;;;;;4936424;29;20018;-54
2023/10/10 12:00:22;;;;;;;;;;;21.20;1.00;;;;;;4936388;29;19975;-55
2023/10/10 12:02:55;;;;;;;;;;;21.20;1.00;;;;;;4935937;29;19974;-54
2023/10/10 12:08:05;;;;;;;;;;;21.20;1.00;;;;;;4936247;29;20018;-52
2023/10/10 12:13:09;;;;;;;;;;;21.20;1.00;;;;;;4935856;29;19927;-54
2023/10/10 12:15:40;;;;;;;;;;;21.20;1.00;;;;;;4936055;29;20411;-55
2023/10/10 12:18:09;;;;;;;;;;;21.20;1.00;;;;;;4935854;29;19981;-54
2023/10/10 12:20:38;;;;;;;;;;;21.20;1.00;;;;;;4935614;29;19930;-51
2023/10/10 12:23:04;;;;;;;;;;;21.20;1.00;;;;;;4935909;29;20415;-54
2023/10/10 12:25:33;;;;;;;;;;;21.20;1.00;;;;;;4935297;29;20473;-53
2023/10/10 12:28:00;;;;;;;;;;;21.20;1.00;;;;;;4938256;29;19927;-54
2023/10/10 12:30:27;;;;;;;;;;;21.20;1.00;;;;;;4940637;29;19945;-54
2023/10/10 12:32:53;;;;;;;;;;;21.20;1.00;;;;;;4940970;29;19927;-50
2023/10/10 12:35:24;;;;;;;;;;;21.20;1.00;;;;;;4935628;29;19927;-50
2023/10/10 12:38:01;;;;;;;;;;;21.20;1.00;;;;;;4935737;29;19926;-50
2023/10/10 12:40:29;;;;;;;;;;;21.20;1.00;;;;;;4935324;29;20325;-51
2023/10/10 12:42:56;;;;;;;;;;;21.20;1.00;;;;;;4935233;29;19927;-51
2023/10/10 12:45:23;;;;;;;;;;;21.20;1.00;;;;;;4935926;29;19949;-50
2023/10/10 12:47:50;;;;;;;;;;;21.20;1.00;;;;;;4935412;29;19933;-52
2023/10/10 12:50:17;;;;;;;;;;;21.20;1.00;;;;;;4935283;29;20021;-52
2023/10/10 12:52:56;;;;;;;;;;;21.20;1.00;;;;;;4935205;29;20292;-51
2023/10/10 12:55:25;;;;;;;;;;;21.20;1.00;;;;;;4935634;29;20017;-51
2023/10/10 12:57:54;;;;;;;;;;;21.20;1.00;;;;;;4935337;29;19939;-50
2023/10/10 13:00:24;;;;;;;;;;;21.20;1.00;;;;;;4935107;29;19927;-52
2023/10/10 13:02:53;;;;;;;;;;;21.20;1.00;;;;;;4934199;29;19927;-49
2023/10/10 13:05:27;;;;;;;;;;;21.20;1.00;;;;;;4934712;29;19933;-50
2023/10/10 13:07:55;;;;;;;;;;;21.20;1.00;;;;;;4935126;29;20396;-50
2023/10/10 13:10:27;;;;;;;;;;;21.20;1.00;;;;;;4935169;29;19933;-54
2023/10/10 13:12:54;;;;;;;;;;;21.20;1.00;;;;;;4934866;29;19926;-51
2023/10/10 13:15:46;;;;;;;;;;;21.20;1.00;;;;;;4935191;29;20328;-50
2023/10/10 13:18:19;;;;;;;;;;;21.30;1.00;;;;;;4934958;29;20021;-49
2023/10/10 13:20:50;;;;;;;;;;;21.20;1.00;;;;;;4934458;29;19926;-49
2023/10/10 13:23:18;;;;;;;;;;;21.20;1.00;;;;;;4934828;29;20360;-51
2023/10/10 13:25:48;;;;;;;;;;;21.20;1.00;;;;;;4935281;29;19934;-53
2023/10/10 13:28:20;;;;;;;;;;;21.20;1.00;;;;;;4935065;29;19927;-53
2023/10/10 13:30:47;;;;;;;;;;;21.20;1.00;;;;;;4937207;29;19930;-55
2023/10/10 13:33:14;;;;;;;;;;;21.30;1.00;;;;;;4938917;29;19967;-55
2023/10/10 13:35:42;;;;;;;;;;;21.30;1.00;;;;;;4939027;29;20207;-53
2023/10/10 13:38:09;;;;;;;;;;;21.20;1.00;;;;;;4938788;29;19934;-53
2023/10/10 13:40:44;;;;;;;;;;;21.20;1.00;;;;;;4938572;29;20027;-53
2023/10/10 13:43:16;;;;;;;;;;;21.20;1.00;;;;;;4938910;29;20026;-55
2023/10/10 13:45:48;;;;;;;;;;;21.30;1.00;;;;;;4938800;29;19982;-53
2023/10/10 13:48:17;;;;;;;;;;;21.20;1.00;;;;;;4938473;29;20344;-54
2023/10/10 13:50:45;;;;;;;;;;;21.30;1.00;;;;;;4938295;29;20451;-52
2023/10/10 13:53:13;;;;;;;;;;;21.20;1.00;;;;;;4938279;29;19937;-53
2023/10/10 13:55:40;;;;;;;;;;;21.30;1.00;;;;;;4938496;29;20025;-55
2023/10/10 13:58:10;;;;;;;;;;;21.30;1.00;;;;;;4934345;29;19949;-50
2023/10/10 14:00:37;;;;;;;;;;;21.30;1.00;;;;;;4935312;29;19927;-50
2023/10/10 14:03:04;;;;;;;;;;;21.30;1.00;;;;;;4938397;29;20021;-49
2023/10/10 14:05:41;;;;;;;;;;;21.30;1.00;;;;;;4931993;29;19927;-53
2023/10/10 14:08:17;;;;;;;;;;;21.30;1.00;;;;;;4938390;29;19927;-49
2023/10/10 14:10:50;;;;;;;;;;;21.30;1.00;;;;;;4937889;29;19927;-53
2023/10/10 14:13:19;;;;;;;;;;;21.30;1.00;;;;;;4938035;29;20013;-53
2023/10/10 14:16:08;;;;;;;;;;;21.30;1.00;;;;;;4938028;29;20400;-50
2023/10/10 14:18:47;;;;;;;;;;;21.30;1.00;;;;;;4938010;29;19934;-54
2023/10/10 14:21:16;;;;;;;;;;;21.30;1.00;;;;;;4937697;29;20018;-53
2023/10/10 14:23:46;;;;;;;;;;;21.40;1.00;;;;;;4938002;29;19937;-49
2023/10/10 14:26:13;;;;;;;;;;;21.30;1.00;;;;;;4930155;29;19931;-51
2023/10/10 14:28:41;;;;;;;;;;;21.30;1.00;;;;;;4938302;29;19966;-53
2023/10/10 14:31:12;;;;;;;;;;;21.30;1.00;;;;;;4937488;29;19927;-49
2023/10/10 14:33:39;;;;;;;;;;;21.30;1.00;;;;;;4937824;29;19926;-53
2023/10/10 14:36:12;;;;;;;;;;;21.40;1.00;;;;;;4920934;29;19954;-52
2023/10/10 14:38:44;;;;;;;;;;;21.40;1.00;;;;;;4937702;29;19935;-52
2023/10/10 14:41:19;;;;;;;;;;;21.40;1.00;;;;;;4934536;29;19931;-54
2023/10/10 14:43:50;;;;;;;;;;;21.40;1.00;;;;;;4935829;29;19927;-50
2023/10/10 14:46:21;;;;;;;;;;;21.40;1.00;;;;;;4933028;29;20419;-49
2023/10/10 14:48:49;;;;;;;;;;;21.40;1.00;;;;;;4931010;29;19990;-48
2023/10/10 14:51:19;;;;;;;;;;;21.40;1.00;;;;;;4932970;29;19934;-49
2023/10/10 14:53:53;;;;;;;;;;;21.40;1.00;;;;;;4933114;29;19934;-49
2023/10/10 14:56:24;;;;;;;;;;;21.40;1.00;;;;;;4933356;29;19945;-48
2023/10/10 14:58:51;;;;;;;;;;;21.40;1.00;;;;;;4928454;29;19927;-49
2023/10/10 15:01:21;;;;;;;;;;;21.40;1.00;;;;;;4931953;29;20021;-49
2023/10/10 15:03:50;;;;;;;;;;;21.40;1.00;;;;;;4937252;29;20372;-49
2023/10/10 15:06:20;;;;;;;;;;;21.50;1.00;;;;;;4929218;29;20000;-49
2023/10/10 15:08:47;;;;;;;;;;;21.40;1.00;;;;;;4923755;29;20360;-49
2023/10/10 15:11:14;;;;;;;;;;;21.40;1.00;;;;;;4935369;29;19933;-49
2023/10/10 15:13:41;;;;;;;;;;;21.40;1.00;;;;;;4937544;29;19934;-49
2023/10/10 15:16:11;;;;;;;;;;;21.50;1.00;;;;;;4930469;29;19927;-50
2023/10/10 15:18:38;;;;;;;;;;;21.50;1.00;;;;;;4937421;29;19934;-50
2023/10/10 15:21:08;;;;;;;;;;;21.50;1.00;;;;;;4935781;29;19927;-54
2023/10/10 15:23:37;;;;;;;;;;;21.50;1.00;;;;;;4930379;29;19933;-53
2023/10/10 15:26:05;;;;;;;;;;;21.50;1.00;;;;;;4930873;29;20288;-50
2023/10/10 15:28:32;;;;;;;;;;;21.50;1.00;;;;;;4937128;29;19934;-50
2023/10/10 15:30:59;;;;;;;;;;;21.50;1.00;;;;;;4928574;29;19930;-48
2023/10/10 15:33:30;;;;;;;;;;;21.50;1.00;;;;;;4924651;29;20495;-49
2023/10/10 15:35:57;;;;;;;;;;;21.50;1.00;;;;;;4937078;29;20391;-49
2023/10/10 15:38:24;;;;;;;;;;;21.50;1.00;;;;;;4936888;29;19934;-48
2023/10/10 15:40:52;;;;;;;;;;;21.50;1.00;;;;;;4932111;29;20021;-48
2023/10/10 15:43:19;;;;;;;;;;;21.50;1.00;;;;;;4934988;29;19933;-49
2023/10/10 15:45:59;;;;;;;;;;;21.50;1.00;;;;;;4936700;29;19934;-50
2023/10/10 15:48:27;;;;;;;;;;;21.50;1.00;;;;;;4935249;29;19935;-51
2023/10/10 15:50:57;;;;;;;;;;;21.50;1.00;;;;;;4933423;29;19931;-48
2023/10/10 15:53:27;;;;;;;;;;;21.50;1.00;;;;;;4936287;29;19994;-49
2023/10/10 15:56:07;;;;;;;;;;;21.50;1.00;;;;;;4932687;29;20310;-49
2023/10/10 15:58:35;;;;;;;;;;;21.50;1.00;;;;;;4930718;29;20352;-50
2023/10/10 16:01:09;;;;;;;;;;;21.50;1.00;;;;;;4927966;29;19933;-48
2023/10/10 16:03:37;;;;;;;;;;;21.50;1.00;;;;;;4930237;29;19931;-49
2023/10/10 16:06:08;;;;;;;;;;;21.50;1.00;;;;;;4935439;29;20444;-49
2023/10/10 16:08:35;;;;;;;;;;;21.50;1.00;;;;;;4924524;29;19930;-50
2023/10/10 16:11:06;;;;;;;;;;;21.50;1.00;;;;;;4920691;29;19927;-51
2023/10/10 16:13:36;;;;;;;;;;;21.50;1.00;;;;;;4932991;29;19927;-50
2023/10/10 16:16:06;;;;;;;;;;;21.50;1.00;;;;;;4932102;29;19926;-56
2023/10/10 16:18:36;;;;;;;;;;;21.50;1.00;;;;;;4934463;29;19927;-54
2023/10/10 16:21:04;;;;;;;;;;;21.50;1.00;;;;;;4934449;29;20119;-54
2023/10/10 16:23:32;;;;;;;;;;;21.50;1.00;;;;;;4933754;29;19934;-54
2023/10/10 16:25:59;;;;;;;;;;;21.50;1.00;;;;;;4936366;29;20254;-53
2023/10/10 16:28:26;;;;;;;;;;;21.50;1.00;;;;;;4925482;29;19989;-52
2023/10/10 16:30:53;;;;;;;;;;;21.50;1.00;;;;;;4931183;29;20479;-53
2023/10/10 16:33:26;;;;;;;;;;;21.40;1.00;;;;;;4933129;29;19930;-53
2023/10/10 16:35:56;;;;;;;;;;;21.40;1.00;;;;;;4933843;29;19931;-51
2023/10/10 16:38:23;;;;;;;;;;;21.50;1.00;;;;;;4926297;29;19931;-54
2023/10/10 16:40:52;;;;;;;;;;;21.40;1.00;;;;;;4933999;29;19934;-53
2023/10/10 16:43:24;;;;;;;;;;;21.50;1.00;;;;;;4930062;29;19933;-53
2023/10/10 16:45:51;;;;;;;;;;;21.40;1.00;;;;;;4933310;29;19933;-54
2023/10/10 16:48:17;;;;;;;;;;;21.40;1.00;;;;;;4928581;29;19969;-54
2023/10/10 16:50:44;;;;;;;;;;;21.40;1.00;;;;;;4910237;29;19949;-55
2023/10/10 16:53:13;;;;;;;;;;;21.40;1.00;;;;;;4934593;29;19942;-52
2023/10/10 16:55:43;;;;;;;;;;;21.40;1.00;;;;;;4924109;29;19928;-51
2023/10/10 16:58:14;;;;;;;;;;;21.40;1.00;;;;;;4926321;29;19934;-51
2023/10/10 17:00:41;;;;;;;;;;;21.40;1.00;;;;;;4924869;29;20403;-48
2023/10/10 17:03:11;;;;;;;;;;;21.40;1.00;;;;;;4925082;29;19927;-51
2023/10/10 17:05:40;;;;;;;;;;;21.40;1.00;;;;;;4926364;29;20048;-51
2023/10/10 17:08:08;;;;;;;;;;;21.40;1.00;;;;;;4929991;29;19927;-52
2023/10/10 17:10:37;;;;;;;;;;;21.40;1.00;;;;;;4931949;29;20393;-52
2023/10/10 17:13:07;;;;;;;;;;;21.50;1.00;;;;;;4919819;29;19933;-51
2023/10/10 17:15:34;;;;;;;;;;;21.40;1.00;;;;;;4931896;29;19935;-54
2023/10/10 17:18:03;;;;;;;;;;;21.50;1.00;;;;;;4927012;29;20380;-53
2023/10/10 17:20:30;;;;;;;;;;;21.50;1.00;;;;;;4927649;29;20266;-51
2023/10/10 17:22:59;;;;;;;;;;;21.50;1.00;;;;;;4922604;29;20025;-53
2023/10/10 17:25:28;;;;;;;;;;;21.50;1.00;;;;;;4920631;29;19933;-52
2023/10/10 17:27:54;;;;;;;;;;;21.50;1.00;;;;;;4922144;29;20031;-52
2023/10/10 17:30:21;;;;;;;;;;;21.50;1.00;;;;;;4919001;29;19927;-55
2023/10/10 17:32:48;;;;;;;;;;;21.50;1.00;;;;;;4924277;29;19927;-54
2023/10/10 17:35:17;;;;;;;;;;;21.50;1.00;;;;;;4929043;29;19957;-53
2023/10/10 17:37:45;;;;;;;;;;;21.50;1.00;;;;;;4920675;29;20372;-55
2023/10/10 17:40:16;;;;;;;;;;;21.50;1.00;;;;;;4930208;29;20384;-53
2023/10/10 17:42:43;;;;;;;;;;;21.50;1.00;;;;;;4923822;29;19958;-53
2023/10/10 17:45:11;;;;;;;;;;;21.50;1.00;;;;;;4921997;29;20029;-47